Time;durP1;ratioP1;P1;durP2;ratioP2;P2;SDS_P1;SDS_P2;PMS_P1;PMS_P2;Temp;Humidity;BMP_temperature;BMP_pressure;BME280_temperature;BME280_humidity;BME280_pressure;Samples;Min_cycle;Max_cycle;Signal;HPM_P1;HPM_P2
2022/05/09 00:00:29;;;;;;;10.25;5.03;;;;;;;12.80;58.21;101127.34;30854311;28;99957;-76
2022/05/09 00:15:29;;;;;;;8.20;4.97;;;;;;;12.63;59.01;101125.59;30852737;28;99040;-75
2022/05/09 00:30:30;;;;;;;11.15;5.25;;;;;;;12.38;59.71;101132.69;30852972;28;97293;-75
2022/05/09 00:45:30;;;;;;;10.52;5.10;;;;;;;12.05;60.32;101146.66;30851925;28;96776;-75
2022/05/09 01:00:30;;;;;;;10.15;4.45;;;;;;;12.15;59.72;101154.56;30869390;28;97272;-75
2022/05/09 01:15:31;;;;;;;9.80;4.78;;;;;;;12.08;58.99;101165.03;30869117;28;96773;-77
2022/05/09 01:30:39;;;;;;;9.38;5.22;;;;;;;11.81;59.37;101172.16;30868389;28;96761;-76
2022/05/09 01:45:39;;;;;;;11.80;4.87;;;;;;;11.43;59.66;101184.00;30866501;28;97232;-76
2022/05/09 02:00:41;;;;;;;14.10;5.32;;;;;;;11.09;60.45;101185.47;30863641;28;97508;-76
2022/05/09 02:15:42;;;;;;;5.43;3.63;;;;;;;10.68;60.81;101187.63;30862274;28;96804;-77
2022/05/09 02:30:42;;;;;;;10.00;4.30;;;;;;;10.67;60.23;101191.28;30862273;28;96652;-75
2022/05/09 02:45:43;;;;;;;8.65;4.28;;;;;;;10.69;60.24;101205.31;30860993;28;97245;-75
2022/05/09 03:00:44;;;;;;;7.35;3.92;;;;;;;10.54;59.96;101212.06;30858997;28;96718;-75
2022/05/09 03:15:46;;;;;;;14.30;4.40;;;;;;;10.37;59.95;101219.84;30855106;28;97452;-74
2022/05/09 03:30:49;;;;;;;8.90;3.67;;;;;;;10.40;59.76;101227.56;30855489;28;97444;-76
2022/05/09 03:45:50;;;;;;;10.63;4.40;;;;;;;10.55;59.15;101251.91;30854198;28;96678;-77
2022/05/09 04:00:51;;;;;;;9.40;3.70;;;;;;;10.67;58.01;101252.56;30852659;28;96690;-75
2022/05/09 04:31:27;;;;;;;7.97;3.57;;;;;;;11.17;56.96;101273.56;30861077;28;97368;-77
2022/05/09 04:46:27;;;;;;;7.23;3.73;;;;;;;11.22;56.40;101285.63;30868124;28;96750;-75
2022/05/09 05:01:27;;;;;;;10.85;4.22;;;;;;;11.43;55.75;101291.56;30867952;28;96674;-79
2022/05/09 05:31:47;;;;;;;11.27;3.47;;;;;;;12.13;53.71;101317.66;30963147;28;96820;-75
2022/05/09 05:46:48;;;;;;;8.38;3.88;;;;;;;12.74;53.10;101325.84;30986352;28;96564;-75
2022/05/09 06:01:51;;;;;;;11.10;3.73;;;;;;;13.61;51.21;101327.66;30985634;28;96665;-75
2022/05/09 06:16:51;;;;;;;;;;;;;;;14.43;48.44;101322.41;30983029;28;96722;-76
2022/05/09 06:31:52;;;;;;;8.13;3.70;;;;;;;15.10;46.96;101337.44;30985008;28;97961;-74
2022/05/09 06:46:52;;;;;;;10.18;3.88;;;;;;;15.78;45.90;101345.06;30960832;28;98570;-74
2022/05/09 07:01:52;;;;;;;9.40;3.50;;;;;;;16.65;44.58;101352.00;30979297;28;116831;-72
2022/05/09 07:16:53;;;;;;;10.32;3.78;;;;;;;17.31;42.33;101359.47;30977815;28;96844;-74
2022/05/09 07:31:53;;;;;;;8.73;3.25;;;;;;;18.34;40.55;101359.41;30975961;28;112199;-75
2022/05/09 07:46:54;;;;;;;10.15;5.00;;;;;;;18.71;39.12;101344.81;30972837;28;109621;-73
2022/05/09 08:01:54;;;;;;;13.13;3.58;;;;;;;19.78;38.12;101350.81;30981564;28;97446;-77
2022/05/09 08:16:55;;;;;;;8.52;3.40;;;;;;;20.65;36.11;101346.59;30995038;28;97201;-75
2022/05/09 08:31:55;;;;;;;7.28;3.63;;;;;;;21.70;34.66;101357.41;30993682;28;96839;-75
2022/05/09 08:47:14;;;;;;;8.52;3.42;;;;;;;22.95;33.00;101353.19;30916522;28;113165;-82
2022/05/09 09:02:21;;;;;;;8.73;3.07;;;;;;;23.51;30.97;101355.09;30867543;28;97366;-75
2022/05/09 09:17:35;;;;;;;6.40;2.77;;;;;;;24.33;28.91;101352.72;30866073;28;98370;-73
2022/05/09 09:32:36;;;;;;;8.70;2.63;;;;;;;24.90;27.75;101354.09;30865232;28;96761;-75
2022/05/09 09:47:36;;;;;;;8.77;2.30;;;;;;;25.63;26.02;101349.13;30863119;28;97824;-77
2022/05/09 12:42:56;;;;;;;6.50;2.50;;;;;;;26.15;21.67;101219.84;30956472;28;96548;-73
2022/05/09 12:57:57;;;;;;;5.93;2.10;;;;;;;26.90;21.21;101211.34;30955143;28;96666;-76
2022/05/09 13:13:05;;;;;;;5.43;1.97;;;;;;;26.36;21.54;101198.28;30953512;28;96694;-74
2022/05/09 13:28:11;;;;;;;7.20;2.23;;;;;;;25.46;22.58;101179.09;30950527;28;96754;-75
2022/05/09 13:43:16;;;;;;;8.70;2.57;;;;;;;25.08;23.29;101161.47;30943406;28;98484;-75
2022/05/09 13:58:23;;;;;;;5.57;2.00;;;;;;;24.44;23.77;101135.09;30865477;28;100508;-74
2022/05/09 14:13:32;;;;;;;10.30;3.23;;;;;;;24.05;24.38;101115.75;30864544;28;97760;-72
2022/05/09 14:44:18;;;;;;;6.13;2.10;;;;;;;23.24;26.05;101106.19;30862455;28;96730;-76
2022/05/09 14:59:23;;;;;;;10.60;2.43;;;;;;;22.86;25.47;101092.94;30858023;28;96732;-71
2022/05/09 15:14:23;;;;;;;8.77;3.33;;;;;;;22.42;26.59;101093.06;30857194;28;97144;-77
2022/05/09 15:29:26;;;;;;;5.20;1.80;;;;;;;22.09;26.74;101072.50;30851163;28;102778;-74
2022/05/09 15:44:26;;;;;;;6.37;1.83;;;;;;;21.90;27.26;101079.81;30912345;28;97324;-75
2022/05/09 15:59:29;;;;;;;4.43;1.70;;;;;;;21.59;27.06;101070.72;30893115;28;98346;-67
2022/05/09 16:14:32;;;;;;;5.63;1.90;;;;;;;21.18;27.72;101056.63;30907163;28;97016;-75
2022/05/09 16:29:32;;;;;;;10.70;2.67;;;;;;;20.78;28.58;101051.47;30907138;28;96812;-75
2022/05/09 16:44:34;;;;;;;10.10;2.40;;;;;;;20.34;29.51;101044.97;30906822;28;96761;-67
2022/05/09 16:59:35;;;;;;;;;;;;;;;20.00;29.69;101050.50;30894668;28;97134;-71
2022/05/09 17:14:39;;;;;;;3.97;1.90;;;;;;;19.64;30.15;101050.94;30911047;28;96868;-75
2022/05/09 17:29:41;;;;;;;3.50;1.80;;;;;;;19.20;31.08;101040.53;30927188;28;96715;-74
2022/05/09 17:44:42;;;;;;;6.13;2.30;;;;;;;18.79;32.53;101038.78;30946583;28;97123;-77
2022/05/09 17:59:45;;;;;;;4.67;1.60;;;;;;;18.23;32.83;101046.09;30734223;28;97229;-74
2022/05/09 18:14:57;;;;;;;10.33;2.40;;;;;;;17.66;34.32;101053.38;30732717;28;96994;-71
2022/05/09 18:29:58;;;;;;;5.33;2.83;;;;;;;17.19;35.24;101060.22;30801353;28;97276;-76
2022/05/09 18:44:58;;;;;;;9.30;2.90;;;;;;;16.64;36.41;101067.91;30858161;28;114049;-77
2022/05/09 18:59:59;;;;;;;8.50;2.92;;;;;;;16.04;37.58;101067.94;30861505;28;96816;-73
2022/05/09 19:15:01;;;;;;;7.67;3.00;;;;;;;15.57;38.41;101070.72;30860540;28;97837;-69
2022/05/09 19:30:03;;;;;;;6.60;3.70;;;;;;;15.16;39.20;101070.19;30857954;28;97700;-66
2022/05/09 19:45:04;;;;;;;9.60;3.60;;;;;;;14.88;39.70;101082.31;30855921;28;96755;-66
2022/05/09 20:00:08;;;;;;;5.88;2.90;;;;;;;14.53;40.93;101097.88;30856782;28;96622;-71
2022/05/09 20:15:10;;;;;;;7.37;2.97;;;;;;;14.17;42.04;101098.31;30854483;28;97679;-69
2022/05/09 20:30:11;;;;;;;6.83;3.10;;;;;;;13.88;43.08;101099.72;30854379;28;96872;-70
2022/05/09 20:45:12;;;;;;;6.80;3.30;;;;;;;13.71;43.72;101108.78;30853101;28;96725;-68
2022/05/09 21:00:16;;;;;;;8.97;3.37;;;;;;;13.47;43.94;101105.09;30866131;28;97034;-69
2022/05/09 21:15:17;;;;;;;7.83;3.10;;;;;;;13.18;45.06;101118.94;30860937;28;97062;-68
2022/05/09 21:30:17;;;;;;;6.80;3.22;;;;;;;12.90;45.54;101131.72;30866277;28;97364;-68
2022/05/09 21:45:19;;;;;;;11.75;3.53;;;;;;;12.52;46.81;101122.22;30869725;28;96723;-68
2022/05/09 22:00:28;;;;;;;12.87;3.20;;;;;;;12.19;47.72;101132.75;30868620;28;97078;-67
2022/05/09 22:15:30;;;;;;;7.83;2.67;;;;;;;11.89;47.98;101133.16;30866937;28;96729;-70
2022/05/09 22:30:31;;;;;;;4.63;2.90;;;;;;;11.58;49.03;101120.28;30864868;28;97415;-70
2022/05/09 22:45:32;;;;;;;4.50;3.05;;;;;;;11.29;49.21;101113.31;30864741;28;99319;-69
2022/05/09 23:00:32;;;;;;;8.45;3.58;;;;;;;11.05;49.97;101098.75;30862971;28;97221;-68
2022/05/09 23:15:34;;;;;;;6.80;3.30;;;;;;;10.78;50.66;101092.47;30861031;28;97472;-68
2022/05/09 23:30:34;;;;;;;6.87;3.37;;;;;;;10.57;51.27;101081.25;30860049;28;97598;-70
2022/05/09 23:45:35;;;;;;;10.40;3.20;;;;;;;10.34;51.80;101073.59;30859497;28;97264;-68
